createdAt,value
2022-12-03T00:01:45.201Z,-1.10
2022-12-03T00:04:11.833Z,-1.10
2022-12-03T00:06:38.503Z,-1.10
2022-12-03T00:09:05.325Z,-1.10
2022-12-03T00:11:32.029Z,-1.10
2022-12-03T00:13:58.713Z,-1.10
2022-12-03T00:16:25.505Z,-1.10
2022-12-03T00:18:52.304Z,-1.10
2022-12-03T00:21:18.931Z,-1.10
2022-12-03T00:23:45.566Z,-1.10
2022-12-03T00:26:12.223Z,-1.10
2022-12-03T00:28:38.842Z,-1.10
2022-12-03T00:31:05.703Z,-1.10
2022-12-03T00:33:32.455Z,-1.10
2022-12-03T00:35:59.143Z,-1.10
2022-12-03T00:38:25.804Z,-1.10
2022-12-03T00:40:52.458Z,-1.10
2022-12-03T00:43:19.126Z,-1.10
2022-12-03T00:45:45.906Z,-1.10
2022-12-03T00:48:12.573Z,-1.10
2022-12-03T00:50:39.248Z,-1.10
2022-12-03T00:53:05.905Z,-1.10
2022-12-03T00:55:32.588Z,-1.00
2022-12-03T00:57:59.393Z,-1.00
2022-12-03T01:00:26.137Z,-1.00
2022-12-03T01:02:53.085Z,-1.10
2022-12-03T01:05:20.209Z,-1.10
2022-12-03T01:07:47.043Z,-1.00
2022-12-03T01:10:13.876Z,-1.00
2022-12-03T01:12:40.618Z,-1.00
2022-12-03T01:15:07.698Z,-1.00
2022-12-03T01:17:34.380Z,-1.00
2022-12-03T01:20:01.680Z,-1.10
2022-12-03T01:22:28.383Z,-1.10
2022-12-03T01:24:55.348Z,-1.10
2022-12-03T01:27:22.196Z,-1.10
2022-12-03T01:29:48.872Z,-1.10
2022-12-03T01:32:19.480Z,-1.10
2022-12-03T01:34:51.256Z,-1.10
2022-12-03T01:37:20.467Z,-1.10
2022-12-03T01:39:47.188Z,-1.10
2022-12-03T01:42:40.241Z,-1.10
2022-12-03T01:45:07.523Z,-1.10
2022-12-03T01:47:35.147Z,-1.10
2022-12-03T01:50:03.645Z,-1.10
2022-12-03T01:52:32.198Z,-1.10
2022-12-03T01:55:00.003Z,-1.10
2022-12-03T01:57:37.366Z,-1.10
2022-12-03T02:00:04.230Z,-1.20
2022-12-03T02:02:32.106Z,-1.10
2022-12-03T02:04:59.363Z,-1.10
2022-12-03T02:07:30.756Z,-1.00
2022-12-03T02:09:58.456Z,-1.00
2022-12-03T02:12:35.567Z,-1.00
2022-12-03T02:15:02.853Z,-1.00
2022-12-03T02:17:29.525Z,-1.00
2022-12-03T02:19:56.303Z,-1.00
2022-12-03T02:22:38.284Z,-1.00
2022-12-03T02:25:15.383Z,-1.00
2022-12-03T02:27:42.741Z,-1.00
2022-12-03T02:30:10.454Z,-1.00
2022-12-03T02:32:37.475Z,-1.00
2022-12-03T02:35:04.346Z,-1.00
2022-12-03T02:37:32.894Z,-1.00
2022-12-03T02:40:01.589Z,-1.00
2022-12-03T02:42:34.934Z,-1.00
2022-12-03T02:45:05.760Z,-1.00
2022-12-03T02:47:34.194Z,-1.00
2022-12-03T02:50:01.146Z,-1.00
2022-12-03T02:52:27.923Z,-1.00
2022-12-03T02:54:55.052Z,-1.00
2022-12-03T02:57:22.122Z,-1.00
2022-12-03T02:59:48.960Z,-1.00
2022-12-03T03:02:15.810Z,-1.10
2022-12-03T03:04:43.024Z,-1.10
2022-12-03T03:07:09.874Z,-1.10
2022-12-03T03:09:36.771Z,-1.10
2022-12-03T03:12:03.566Z,-1.10
2022-12-03T03:14:46.001Z,-1.10
2022-12-03T03:17:12.798Z,-1.10
2022-12-03T03:19:39.604Z,-1.10
2022-12-03T03:22:06.282Z,-1.10
2022-12-03T03:24:52.191Z,-1.10
2022-12-03T03:27:19.442Z,-1.10
2022-12-03T03:29:46.118Z,-1.20
2022-12-03T03:32:12.871Z,-1.20
2022-12-03T03:34:39.586Z,-1.20
2022-12-03T03:37:06.298Z,-1.20
2022-12-03T03:39:32.989Z,-1.20
2022-12-03T03:42:02.533Z,-1.20
2022-12-03T03:44:29.278Z,-1.20
2022-12-03T03:46:57.365Z,-1.20
2022-12-03T03:49:24.217Z,-1.30
2022-12-03T03:51:51.303Z,-1.20
2022-12-03T03:54:18.035Z,-1.30
2022-12-03T03:56:44.786Z,-1.30
2022-12-03T03:59:13.206Z,-1.30
2022-12-03T04:01:40.054Z,-1.30
2022-12-03T04:04:12.925Z,-1.30
2022-12-03T04:06:39.711Z,-1.30
2022-12-03T04:09:06.377Z,-1.30
2022-12-03T04:11:51.514Z,-1.30
2022-12-03T04:14:19.012Z,-1.30
2022-12-03T04:16:45.736Z,-1.30
2022-12-03T04:19:12.466Z,-1.30
2022-12-03T04:21:57.872Z,-1.30
2022-12-03T04:24:24.531Z,-1.30
2022-12-03T04:27:09.753Z,-1.40
2022-12-03T04:29:36.666Z,-1.40
2022-12-03T04:32:22.012Z,-1.40
2022-12-03T04:35:07.600Z,-1.30
2022-12-03T04:37:34.309Z,-1.30
2022-12-03T04:40:01.003Z,-1.30
2022-12-03T04:42:27.745Z,-1.30
2022-12-03T04:44:54.647Z,-1.30
2022-12-03T04:47:22.074Z,-1.30
2022-12-03T04:49:49.969Z,-1.40
2022-12-03T04:52:17.622Z,-1.30
2022-12-03T04:54:44.628Z,-1.40
2022-12-03T04:57:11.553Z,-1.40
2022-12-03T04:59:38.460Z,-1.40
2022-12-03T05:02:05.524Z,-1.40
2022-12-03T05:04:32.889Z,-1.40
2022-12-03T05:06:59.608Z,-1.40
2022-12-03T05:09:26.268Z,-1.40
2022-12-03T05:11:52.924Z,-1.40
2022-12-03T05:14:19.662Z,-1.40
2022-12-03T05:16:46.420Z,-1.40
2022-12-03T05:19:13.123Z,-1.40
2022-12-03T05:21:39.768Z,-1.40
2022-12-03T05:24:06.506Z,-1.40
2022-12-03T05:26:33.176Z,-1.40
2022-12-03T05:29:01.180Z,-1.40
2022-12-03T05:31:27.882Z,-1.40
2022-12-03T05:33:55.110Z,-1.40
2022-12-03T05:36:21.917Z,-1.30
2022-12-03T05:38:48.744Z,-1.30
2022-12-03T05:41:34.154Z,-1.30
2022-12-03T05:44:00.889Z,-1.30
2022-12-03T05:46:27.734Z,-1.30
2022-12-03T05:48:55.107Z,-1.30
2022-12-03T05:51:21.869Z,-1.30
2022-12-03T05:53:48.537Z,-1.30
2022-12-03T05:56:15.204Z,-1.30
2022-12-03T05:58:41.863Z,-1.30
2022-12-03T06:01:08.575Z,-1.30
2022-12-03T06:03:35.395Z,-1.30
2022-12-03T06:06:02.199Z,-1.30
2022-12-03T06:08:28.865Z,-1.30
2022-12-03T06:10:55.517Z,-1.30
2022-12-03T06:13:22.145Z,-1.30
2022-12-03T06:15:48.883Z,-1.30
2022-12-03T06:18:15.690Z,-1.30
2022-12-03T06:20:42.361Z,-1.30
2022-12-03T06:23:09.070Z,-1.40
2022-12-03T06:25:35.758Z,-1.30
2022-12-03T06:28:02.415Z,-1.40
2022-12-03T06:30:29.066Z,-1.40
2022-12-03T06:32:57.768Z,-1.30
2022-12-03T06:35:24.447Z,-1.40
2022-12-03T06:37:51.108Z,-1.30
2022-12-03T06:40:17.929Z,-1.30
2022-12-03T06:42:44.671Z,-1.30
2022-12-03T06:45:11.776Z,-1.30
2022-12-03T06:47:38.595Z,-1.30
2022-12-03T06:50:06.298Z,-1.30
2022-12-03T06:52:32.950Z,-1.30
2022-12-03T06:54:59.687Z,-1.40
2022-12-03T06:57:26.440Z,-1.30
2022-12-03T06:59:53.420Z,-1.30
2022-12-03T07:02:20.373Z,-1.30
2022-12-03T07:04:47.217Z,-1.30
2022-12-03T07:07:14.107Z,-1.30
2022-12-03T07:09:40.749Z,-1.30
2022-12-03T07:12:07.479Z,-1.30
2022-12-03T07:14:34.179Z,-1.30
2022-12-03T07:17:01.027Z,-1.30
2022-12-03T07:19:32.480Z,-1.30
2022-12-03T07:22:00.191Z,-1.30
2022-12-03T07:24:27.130Z,-1.30
2022-12-03T07:26:53.773Z,-1.40
2022-12-03T07:29:20.438Z,-1.40
2022-12-03T07:31:47.228Z,-1.40
2022-12-03T07:34:13.993Z,-1.40
2022-12-03T07:36:40.676Z,-1.30
2022-12-03T07:39:07.337Z,-1.40
2022-12-03T07:41:33.991Z,-1.30
2022-12-03T07:44:00.772Z,-1.30
2022-12-03T07:46:27.568Z,-1.30
2022-12-03T07:48:54.349Z,-1.30
2022-12-03T07:51:21.043Z,-1.30
2022-12-03T07:53:47.759Z,-1.30
2022-12-03T07:56:14.508Z,-1.30
2022-12-03T07:58:41.137Z,-1.30
2022-12-03T08:01:08.095Z,-1.30
2022-12-03T08:03:35.131Z,-1.20
2022-12-03T08:06:01.940Z,-1.20
2022-12-03T08:08:29.021Z,-1.20
2022-12-03T08:10:56.892Z,-1.20
2022-12-03T08:13:23.586Z,-1.20
2022-12-03T08:15:51.724Z,-1.10
2022-12-03T08:18:19.680Z,-1.10
2022-12-03T08:20:48.106Z,-1.10
2022-12-03T08:23:16.339Z,-1.00
2022-12-03T08:25:43.556Z,-1.00
2022-12-03T08:28:21.342Z,-1.00
2022-12-03T08:31:02.550Z,-1.10
2022-12-03T08:33:35.224Z,-1.10
2022-12-03T08:36:08.077Z,-1.10
2022-12-03T08:38:34.787Z,-1.00
2022-12-03T08:41:01.467Z,-1.10
2022-12-03T08:43:28.974Z,-1.00
2022-12-03T08:45:56.591Z,-0.90
2022-12-03T08:48:29.234Z,-0.90
2022-12-03T08:50:57.725Z,-0.80
2022-12-03T08:53:24.425Z,-0.70
2022-12-03T08:55:55.673Z,-0.70
2022-12-03T08:58:39.578Z,-0.70
2022-12-03T09:01:12.522Z,-0.70
2022-12-03T09:03:41.163Z,-0.70
2022-12-03T09:06:08.042Z,-0.60
2022-12-03T09:08:34.691Z,-0.60
2022-12-03T09:11:01.437Z,-0.60
2022-12-03T09:13:28.122Z,-0.70
2022-12-03T09:15:54.912Z,-0.70
2022-12-03T09:18:21.621Z,-0.60
2022-12-03T09:20:48.327Z,-0.60
2022-12-03T09:23:15.443Z,-0.60
2022-12-03T09:25:42.515Z,-0.50
2022-12-03T09:28:09.174Z,-0.50
2022-12-03T09:30:36.850Z,-0.40
2022-12-03T09:33:03.608Z,-0.40
2022-12-03T09:35:30.247Z,-0.30
2022-12-03T09:37:56.909Z,-0.20
2022-12-03T09:40:23.852Z,-0.10
2022-12-03T09:42:50.846Z,-0.10
2022-12-03T09:45:17.739Z,0.00
2022-12-03T09:47:46.153Z,0.00
2022-12-03T09:50:14.398Z,0.00
2022-12-03T09:52:41.046Z,0.10
2022-12-03T09:55:13.980Z,0.20
2022-12-03T09:57:40.808Z,0.20
2022-12-03T10:00:18.803Z,0.30
2022-12-03T10:02:46.561Z,0.30
2022-12-03T10:05:14.590Z,0.40
2022-12-03T10:07:42.061Z,0.50
2022-12-03T10:10:14.206Z,0.60
2022-12-03T10:12:40.944Z,0.60
2022-12-03T10:15:11.535Z,0.60
2022-12-03T10:17:38.245Z,0.60
2022-12-03T10:20:05.248Z,0.60
2022-12-03T10:22:36.942Z,0.60
2022-12-03T10:25:06.259Z,0.50
2022-12-03T10:27:32.971Z,0.50
2022-12-03T10:30:00.556Z,0.50
2022-12-03T10:32:38.217Z,0.60
2022-12-03T10:35:12.907Z,0.70
2022-12-03T10:37:59.091Z,0.70
2022-12-03T10:40:27.411Z,0.70
2022-12-03T10:43:12.368Z,0.80
2022-12-03T10:45:39.046Z,0.80
2022-12-03T10:48:05.772Z,0.80
2022-12-03T10:50:33.193Z,0.80
2022-12-03T10:52:59.870Z,0.80
2022-12-03T10:55:27.470Z,0.80
2022-12-03T10:57:54.188Z,0.80
2022-12-03T11:00:21.100Z,0.60
2022-12-03T11:02:54.832Z,0.50
2022-12-03T11:05:26.813Z,0.50
2022-12-03T11:07:53.847Z,0.60
2022-12-03T11:10:20.839Z,0.60
2022-12-03T11:13:06.187Z,0.60
2022-12-03T11:15:43.827Z,0.60
2022-12-03T11:18:10.724Z,0.60
2022-12-03T11:20:46.599Z,0.70
2022-12-03T11:23:13.342Z,0.70
2022-12-03T11:25:47.540Z,0.70
2022-12-03T11:28:14.201Z,0.80
2022-12-03T11:30:50.584Z,0.70
2022-12-03T11:33:20.313Z,0.70
2022-12-03T11:36:05.547Z,0.80
2022-12-03T11:38:38.346Z,0.80
2022-12-03T11:41:08.015Z,0.70
2022-12-03T11:43:53.111Z,0.70
2022-12-03T11:46:21.180Z,0.60
2022-12-03T11:48:49.158Z,0.60
2022-12-03T11:51:16.957Z,0.50
2022-12-03T11:53:44.744Z,0.60
2022-12-03T11:56:19.313Z,0.60
2022-12-03T11:58:47.203Z,0.70
2022-12-03T12:01:15.230Z,0.70
2022-12-03T12:03:49.868Z,0.70
2022-12-03T12:06:18.570Z,0.70
2022-12-03T12:08:51.287Z,0.70
2022-12-03T12:11:20.275Z,0.70
2022-12-03T12:13:46.978Z,0.80
2022-12-03T12:16:13.864Z,0.70
2022-12-03T12:18:44.400Z,0.70
2022-12-03T12:21:29.944Z,0.60
2022-12-03T12:23:56.626Z,0.50
2022-12-03T12:26:23.295Z,0.50
2022-12-03T12:28:49.969Z,0.50
2022-12-03T12:31:16.732Z,0.50
2022-12-03T12:33:43.445Z,0.50
2022-12-03T12:36:10.362Z,0.40
2022-12-03T12:38:37.036Z,0.40
2022-12-03T12:41:07.403Z,0.40
2022-12-03T12:43:35.942Z,0.40
2022-12-03T12:46:31.460Z,0.50
2022-12-03T12:48:59.525Z,0.50
2022-12-03T12:51:26.554Z,0.40
2022-12-03T12:53:53.763Z,0.30
2022-12-03T12:56:25.538Z,0.30
2022-12-03T12:58:52.935Z,0.30
2022-12-03T13:01:27.137Z,0.30
2022-12-03T13:03:53.975Z,0.30
2022-12-03T13:06:25.570Z,0.30
2022-12-03T13:08:52.716Z,0.20
2022-12-03T13:11:19.345Z,0.20
2022-12-03T13:13:45.988Z,0.20
2022-12-03T13:16:12.702Z,0.20
2022-12-03T13:18:41.527Z,0.20
2022-12-03T13:21:14.122Z,0.20
2022-12-03T13:23:41.097Z,0.10
2022-12-03T13:26:34.073Z,0.00
2022-12-03T13:29:06.787Z,0.00
2022-12-03T13:31:41.929Z,-0.10
2022-12-03T13:34:21.382Z,-0.10
2022-12-03T13:36:55.292Z,-0.20
2022-12-03T13:39:29.456Z,-0.20
2022-12-03T13:42:15.265Z,-0.20
2022-12-03T13:44:44.145Z,-0.30
2022-12-03T13:47:15.859Z,-0.30
2022-12-03T13:49:44.166Z,-0.30
2022-12-03T13:52:13.119Z,-0.40
2022-12-03T13:54:40.281Z,-0.40
2022-12-03T13:57:06.952Z,-0.40
2022-12-03T13:59:33.610Z,-0.40
2022-12-03T14:02:00.313Z,-0.40
2022-12-03T14:04:27.074Z,-0.40
2022-12-03T14:06:53.724Z,-0.40
2022-12-03T14:09:20.389Z,-0.40
2022-12-03T14:12:05.978Z,-0.40
2022-12-03T14:14:32.665Z,-0.30
2022-12-03T14:17:00.215Z,-0.30
2022-12-03T14:19:27.122Z,-0.40
2022-12-03T14:21:53.883Z,-0.40
2022-12-03T14:24:20.626Z,-0.40
2022-12-03T14:26:47.395Z,-0.50
2022-12-03T14:29:14.179Z,-0.50
2022-12-03T14:31:41.023Z,-0.50
2022-12-03T14:34:08.011Z,-0.50
2022-12-03T14:36:34.666Z,-0.60
2022-12-03T14:39:01.342Z,-0.60
2022-12-03T14:41:46.823Z,-0.60
2022-12-03T14:44:13.512Z,-0.60
2022-12-03T14:46:40.191Z,-0.60
2022-12-03T14:49:06.836Z,-0.70
2022-12-03T14:51:33.706Z,-0.70
2022-12-03T14:54:00.398Z,-0.70
2022-12-03T14:56:27.103Z,-0.70
2022-12-03T14:58:53.802Z,-0.70
2022-12-03T15:01:20.512Z,-0.70
2022-12-03T15:03:47.245Z,-0.70
2022-12-03T15:06:14.465Z,-0.80
2022-12-03T15:08:41.123Z,-0.80
2022-12-03T15:11:07.766Z,-0.80
2022-12-03T15:13:34.552Z,-0.80
2022-12-03T15:16:01.228Z,-0.80
2022-12-03T15:18:27.920Z,-0.80
2022-12-03T15:20:54.614Z,-0.80
2022-12-03T15:23:21.253Z,-0.80
2022-12-03T15:25:48.058Z,-0.80
2022-12-03T15:28:16.715Z,-0.80
2022-12-03T15:30:43.415Z,-0.80
2022-12-03T15:33:10.257Z,-0.80
2022-12-03T15:35:37.036Z,-0.90
2022-12-03T15:38:03.691Z,-0.90
2022-12-03T15:40:30.350Z,-0.90
2022-12-03T15:42:57.005Z,-1.00
2022-12-03T15:45:23.699Z,-1.00
2022-12-03T15:47:50.343Z,-1.00
2022-12-03T15:50:17.982Z,-1.00
2022-12-03T15:52:44.808Z,-1.00
2022-12-03T15:55:11.426Z,-1.00
2022-12-03T15:57:38.275Z,-0.90
2022-12-03T16:00:05.624Z,-0.90
2022-12-03T16:02:39.284Z,-1.00
2022-12-03T16:05:07.906Z,-1.00
2022-12-03T16:07:34.842Z,-1.00
2022-12-03T16:10:02.046Z,-1.00
2022-12-03T16:12:28.910Z,-0.90
2022-12-03T16:14:55.624Z,-0.90
2022-12-03T16:17:22.326Z,-1.00
2022-12-03T16:19:49.099Z,-1.00
2022-12-03T16:22:15.958Z,-0.90
2022-12-03T16:24:42.638Z,-1.00
2022-12-03T16:27:09.480Z,-1.00
2022-12-03T16:29:36.218Z,-1.00
2022-12-03T16:32:02.991Z,-1.00
2022-12-03T16:34:29.671Z,-1.00
2022-12-03T16:36:56.461Z,-1.00
2022-12-03T16:39:23.134Z,-1.00
2022-12-03T16:41:49.769Z,-1.00
2022-12-03T16:44:54.638Z,-1.00
2022-12-03T16:47:22.105Z,-1.00
2022-12-03T16:49:49.681Z,-1.00
2022-12-03T16:52:16.668Z,-1.00
2022-12-03T16:54:43.357Z,-1.00
2022-12-03T16:57:10.036Z,-1.00
2022-12-03T16:59:36.879Z,-1.00
2022-12-03T17:02:03.716Z,-1.00
2022-12-03T17:04:30.541Z,-1.00
2022-12-03T17:06:57.226Z,-1.00
2022-12-03T17:09:23.920Z,-1.00
2022-12-03T17:11:50.639Z,-1.00
2022-12-03T17:14:17.370Z,-0.90
2022-12-03T17:16:44.089Z,-0.90
2022-12-03T17:19:10.759Z,-0.90
2022-12-03T17:21:37.436Z,-0.80
2022-12-03T17:24:04.305Z,-0.80
2022-12-03T17:26:31.002Z,-0.80
2022-12-03T17:28:57.759Z,-0.70
2022-12-03T17:31:24.790Z,-0.70
2022-12-03T17:33:57.178Z,-0.70
2022-12-03T17:36:24.504Z,-0.70
2022-12-03T17:38:51.362Z,-0.70
2022-12-03T17:41:18.442Z,-0.70
2022-12-03T17:43:45.130Z,-0.70
2022-12-03T17:46:11.954Z,-0.70
2022-12-03T17:48:40.469Z,-0.70
2022-12-03T17:51:07.215Z,-0.60
2022-12-03T17:53:34.004Z,-0.60
2022-12-03T17:56:00.777Z,-0.60
2022-12-03T17:58:28.589Z,-0.60
2022-12-03T18:01:00.468Z,-0.60
2022-12-03T18:03:29.354Z,-0.60
2022-12-03T18:05:56.241Z,-0.60
2022-12-03T18:08:23.272Z,-0.70
2022-12-03T18:10:50.313Z,-0.70
2022-12-03T18:13:16.991Z,-0.70
2022-12-03T18:15:43.802Z,-0.70
2022-12-03T18:18:10.645Z,-0.70
2022-12-03T18:20:37.506Z,-0.70
2022-12-03T18:23:04.731Z,-0.70
2022-12-03T18:25:31.434Z,-0.70
2022-12-03T18:27:58.272Z,-0.70
2022-12-03T18:30:25.442Z,-0.70
2022-12-03T18:32:52.172Z,-0.70
2022-12-03T18:35:19.957Z,-0.60
2022-12-03T18:37:47.444Z,-0.70
2022-12-03T18:40:18.280Z,-0.60
2022-12-03T18:42:44.976Z,-0.60
2022-12-03T18:45:12.055Z,-0.60
2022-12-03T18:47:38.831Z,-0.60
2022-12-03T18:50:06.601Z,-0.60
2022-12-03T18:52:33.410Z,-0.60
2022-12-03T18:55:00.091Z,-0.60
2022-12-03T18:57:26.883Z,-0.60
2022-12-03T18:59:53.825Z,-0.60
2022-12-03T19:05:08.322Z,-0.60
2022-12-03T19:07:35.205Z,-0.60
2022-12-03T19:10:02.170Z,-0.60
2022-12-03T19:12:28.929Z,-0.70
2022-12-03T19:14:55.620Z,-0.70
2022-12-03T19:17:22.357Z,-0.70
2022-12-03T19:19:49.106Z,-0.70
2022-12-03T19:22:15.960Z,-0.70
2022-12-03T19:24:42.643Z,-0.70
2022-12-03T19:27:09.333Z,-0.70
2022-12-03T19:29:36.058Z,-0.70
2022-12-03T19:32:02.875Z,-0.70
2022-12-03T19:34:29.624Z,-0.70
2022-12-03T19:36:56.394Z,-0.70
2022-12-03T19:39:23.897Z,-0.70
2022-12-03T19:41:50.648Z,-0.70
2022-12-03T19:44:18.462Z,-0.70
2022-12-03T19:46:45.119Z,-0.70
2022-12-03T19:49:11.990Z,-0.70
2022-12-03T19:51:38.855Z,-0.70
2022-12-03T19:54:06.445Z,-0.70
2022-12-03T19:56:33.518Z,-0.70
2022-12-03T19:59:00.381Z,-0.70
2022-12-03T20:01:28.555Z,-0.70
2022-12-03T20:03:56.491Z,-0.70
2022-12-03T20:06:24.613Z,-0.60
2022-12-03T20:08:55.027Z,-0.60
2022-12-03T20:11:22.908Z,-0.70
2022-12-03T20:13:52.246Z,-0.70
2022-12-03T20:16:19.056Z,-0.70
2022-12-03T20:18:46.320Z,-0.70
2022-12-03T20:21:14.260Z,-0.80
2022-12-03T20:23:41.181Z,-0.70
2022-12-03T20:26:08.536Z,-0.70
2022-12-03T20:28:35.296Z,-0.80
2022-12-03T20:31:03.603Z,-0.70
2022-12-03T20:33:30.246Z,-0.80
2022-12-03T20:35:56.914Z,-0.80
2022-12-03T20:38:24.186Z,-0.80
2022-12-03T20:40:50.832Z,-0.80
2022-12-03T20:43:17.575Z,-0.70
2022-12-03T20:45:44.303Z,-0.70
2022-12-03T20:48:11.621Z,-0.70
2022-12-03T20:50:38.816Z,-0.70
2022-12-03T20:53:23.697Z,-0.70
2022-12-03T20:55:55.534Z,-0.70
2022-12-03T20:58:22.260Z,-0.70
2022-12-03T21:00:49.099Z,-0.60
2022-12-03T21:03:15.862Z,-0.60
2022-12-03T21:05:43.872Z,-0.60
2022-12-03T21:08:11.257Z,-0.60
2022-12-03T21:10:45.116Z,-0.60
2022-12-03T21:13:16.130Z,-0.60
2022-12-03T21:15:43.231Z,-0.60
2022-12-03T21:18:11.466Z,-0.60
2022-12-03T21:20:45.681Z,-0.60
2022-12-03T21:23:13.166Z,-0.50
2022-12-03T21:25:39.831Z,-0.50
2022-12-03T21:28:07.910Z,-0.50
2022-12-03T21:30:37.314Z,-0.50
2022-12-03T21:33:04.303Z,-0.60
2022-12-03T21:35:30.966Z,-0.50
2022-12-03T21:37:57.730Z,-0.50
2022-12-03T21:40:24.365Z,-0.50
2022-12-03T21:42:51.022Z,-0.50
2022-12-03T21:45:18.069Z,-0.50
2022-12-03T21:47:48.447Z,-0.50
2022-12-03T21:50:15.175Z,-0.40
2022-12-03T21:52:42.228Z,-0.40
2022-12-03T21:55:09.142Z,-0.40
2022-12-03T21:57:36.345Z,-0.40
2022-12-03T22:00:07.643Z,-0.40
2022-12-03T22:02:38.400Z,-0.40
2022-12-03T22:05:05.441Z,-0.40
2022-12-03T22:07:33.154Z,-0.40
2022-12-03T22:09:59.969Z,-0.40
2022-12-03T22:12:26.764Z,-0.40
2022-12-03T22:14:56.011Z,-0.30
2022-12-03T22:17:23.361Z,-0.30
2022-12-03T22:19:50.077Z,-0.30
2022-12-03T22:22:17.071Z,-0.30
2022-12-03T22:24:45.968Z,-0.30
2022-12-03T22:27:13.712Z,-0.30
2022-12-03T22:29:40.538Z,-0.40
2022-12-03T22:32:07.281Z,-0.40
2022-12-03T22:34:33.944Z,-0.40
2022-12-03T22:37:00.775Z,-0.40
2022-12-03T22:39:27.441Z,-0.40
2022-12-03T22:41:54.335Z,-0.40
2022-12-03T22:44:21.069Z,-0.40
2022-12-03T22:46:47.825Z,-0.40
2022-12-03T22:49:14.628Z,-0.40
2022-12-03T22:51:44.337Z,-0.40
2022-12-03T22:54:11.041Z,-0.40
2022-12-03T22:56:38.437Z,-0.30
2022-12-03T22:59:05.624Z,-0.40
2022-12-03T23:01:33.521Z,-0.40
2022-12-03T23:04:00.906Z,-0.40
2022-12-03T23:06:28.190Z,-0.40
2022-12-03T23:08:55.024Z,-0.40
2022-12-03T23:11:21.962Z,-0.40
2022-12-03T23:13:48.738Z,-0.50
2022-12-03T23:16:17.339Z,-0.40
2022-12-03T23:18:44.249Z,-0.50
2022-12-03T23:21:14.477Z,-0.40
2022-12-03T23:23:41.136Z,-0.40
2022-12-03T23:26:08.502Z,-0.40
2022-12-03T23:28:35.817Z,-0.40
2022-12-03T23:31:02.766Z,-0.40
2022-12-03T23:33:31.998Z,-0.40
2022-12-03T23:36:04.908Z,-0.40
2022-12-03T23:38:31.546Z,-0.40
2022-12-03T23:41:02.965Z,-0.40
2022-12-03T23:43:29.703Z,-0.30
2022-12-03T23:46:02.062Z,-0.30
2022-12-03T23:48:29.068Z,-0.30
2022-12-03T23:50:55.737Z,-0.30
2022-12-03T23:53:22.432Z,-0.30
2022-12-03T23:55:49.376Z,-0.30
2022-12-03T23:58:16.120Z,-0.30
